sensor_id;sensor_type;location;lat;lon;timestamp;temperature;humidity
63017;DHT22;50274;45.640;11.756;2023-04-29T00:00:58;14.50;66.00
63017;DHT22;50274;45.640;11.756;2023-04-29T00:03:23;14.50;66.00
63017;DHT22;50274;45.640;11.756;2023-04-29T00:05:53;14.50;66.10
63017;DHT22;50274;45.640;11.756;2023-04-29T00:08:19;14.50;66.30
63017;DHT22;50274;45.640;11.756;2023-04-29T00:10:45;14.50;66.30
63017;DHT22;50274;45.640;11.756;2023-04-29T00:13:11;14.50;66.30
63017;DHT22;50274;45.640;11.756;2023-04-29T00:15:38;14.50;66.30
63017;DHT22;50274;45.640;11.756;2023-04-29T00:18:04;14.50;66.10
63017;DHT22;50274;45.640;11.756;2023-04-29T00:20:30;14.50;66.00
63017;DHT22;50274;45.640;11.756;2023-04-29T00:22:56;14.60;66.00
63017;DHT22;50274;45.640;11.756;2023-04-29T00:25:22;14.60;65.80
63017;DHT22;50274;45.640;11.756;2023-04-29T00:27:48;14.60;65.80
63017;DHT22;50274;45.640;11.756;2023-04-29T00:30:13;14.60;65.80
63017;DHT22;50274;45.640;11.756;2023-04-29T00:32:39;14.60;65.90
63017;DHT22;50274;45.640;11.756;2023-04-29T00:35:06;14.50;65.90
63017;DHT22;50274;45.640;11.756;2023-04-29T00:37:31;14.50;66.00
63017;DHT22;50274;45.640;11.756;2023-04-29T00:39:57;14.50;66.10
63017;DHT22;50274;45.640;11.756;2023-04-29T00:42:24;14.50;66.10
63017;DHT22;50274;45.640;11.756;2023-04-29T00:44:50;14.50;66.20
63017;DHT22;50274;45.640;11.756;2023-04-29T00:47:16;14.50;66.20
63017;DHT22;50274;45.640;11.756;2023-04-29T00:49:42;14.50;66.20
63017;DHT22;50274;45.640;11.756;2023-04-29T00:52:10;14.50;66.10
63017;DHT22;50274;45.640;11.756;2023-04-29T00:54:37;14.50;66.10
63017;DHT22;50274;45.640;11.756;2023-04-29T00:57:03;14.50;66.10
63017;DHT22;50274;45.640;11.756;2023-04-29T00:59:32;14.50;66.00
63017;DHT22;50274;45.640;11.756;2023-04-29T01:02:02;14.50;65.90
63017;DHT22;50274;45.640;11.756;2023-04-29T01:04:31;14.40;65.80
63017;DHT22;50274;45.640;11.756;2023-04-29T01:12:32;14.50;65.80
63017;DHT22;50274;45.640;11.756;2023-04-29T01:15:16;14.40;65.70
63017;DHT22;50274;45.640;11.756;2023-04-29T01:17:59;14.50;65.60
63017;DHT22;50274;45.640;11.756;2023-04-29T01:20:26;14.40;65.60
63017;DHT22;50274;45.640;11.756;2023-04-29T01:22:52;14.40;65.60
63017;DHT22;50274;45.640;11.756;2023-04-29T01:25:18;14.40;65.70
63017;DHT22;50274;45.640;11.756;2023-04-29T01:31:11;14.40;65.80
63017;DHT22;50274;45.640;11.756;2023-04-29T01:39:02;14.40;65.90
63017;DHT22;50274;45.640;11.756;2023-04-29T01:41:43;14.40;65.90
63017;DHT22;50274;45.640;11.756;2023-04-29T01:44:17;14.40;65.90
63017;DHT22;50274;45.640;11.756;2023-04-29T01:46:51;14.40;65.90
63017;DHT22;50274;45.640;11.756;2023-04-29T01:49:25;14.40;65.90
63017;DHT22;50274;45.640;11.756;2023-04-29T01:51:51;14.40;66.00
63017;DHT22;50274;45.640;11.756;2023-04-29T01:54:16;14.40;66.00
63017;DHT22;50274;45.640;11.756;2023-04-29T01:56:43;14.40;66.00
63017;DHT22;50274;45.640;11.756;2023-04-29T01:59:09;14.40;66.00
63017;DHT22;50274;45.640;11.756;2023-04-29T02:01:35;14.40;66.00
63017;DHT22;50274;45.640;11.756;2023-04-29T02:04:01;14.40;66.00
63017;DHT22;50274;45.640;11.756;2023-04-29T02:06:27;14.40;66.00
63017;DHT22;50274;45.640;11.756;2023-04-29T02:08:53;14.40;66.00
63017;DHT22;50274;45.640;11.756;2023-04-29T02:11:19;14.40;66.00
63017;DHT22;50274;45.640;11.756;2023-04-29T02:13:46;14.40;66.10
63017;DHT22;50274;45.640;11.756;2023-04-29T02:16:14;14.30;66.20
63017;DHT22;50274;45.640;11.756;2023-04-29T02:18:41;14.30;66.30
63017;DHT22;50274;45.640;11.756;2023-04-29T02:21:07;14.30;66.40
63017;DHT22;50274;45.640;11.756;2023-04-29T02:23:34;14.30;66.60
63017;DHT22;50274;45.640;11.756;2023-04-29T02:26:00;14.30;66.60
63017;DHT22;50274;45.640;11.756;2023-04-29T02:28:26;14.30;66.70
63017;DHT22;50274;45.640;11.756;2023-04-29T02:30:52;14.30;66.70
63017;DHT22;50274;45.640;11.756;2023-04-29T02:33:19;14.30;66.70
63017;DHT22;50274;45.640;11.756;2023-04-29T02:35:44;14.30;66.70
63017;DHT22;50274;45.640;11.756;2023-04-29T02:38:10;14.30;66.70
63017;DHT22;50274;45.640;11.756;2023-04-29T02:40:44;14.30;66.70
63017;DHT22;50274;45.640;11.756;2023-04-29T02:43:11;14.30;66.70
63017;DHT22;50274;45.640;11.756;2023-04-29T02:45:37;14.30;66.70
63017;DHT22;50274;45.640;11.756;2023-04-29T02:48:04;14.40;66.70
63017;DHT22;50274;45.640;11.756;2023-04-29T02:50:30;14.30;66.70
63017;DHT22;50274;45.640;11.756;2023-04-29T02:52:56;14.40;66.70
63017;DHT22;50274;45.640;11.756;2023-04-29T02:55:22;14.40;66.60
63017;DHT22;50274;45.640;11.756;2023-04-29T02:57:48;14.40;66.60
63017;DHT22;50274;45.640;11.756;2023-04-29T03:00:14;14.40;66.60
63017;DHT22;50274;45.640;11.756;2023-04-29T03:02:39;14.40;66.60
63017;DHT22;50274;45.640;11.756;2023-04-29T03:05:05;14.40;66.60
63017;DHT22;50274;45.640;11.756;2023-04-29T03:07:31;14.40;66.60
63017;DHT22;50274;45.640;11.756;2023-04-29T03:09:57;14.40;66.60
63017;DHT22;50274;45.640;11.756;2023-04-29T03:12:23;14.30;66.60
63017;DHT22;50274;45.640;11.756;2023-04-29T03:14:49;14.40;66.70
63017;DHT22;50274;45.640;11.756;2023-04-29T03:17:17;14.40;66.60
63017;DHT22;50274;45.640;11.756;2023-04-29T03:19:43;14.40;66.70
63017;DHT22;50274;45.640;11.756;2023-04-29T03:22:09;14.30;66.70
63017;DHT22;50274;45.640;11.756;2023-04-29T03:24:37;14.40;66.70
63017;DHT22;50274;45.640;11.756;2023-04-29T03:27:03;14.30;66.60
63017;DHT22;50274;45.640;11.756;2023-04-29T03:29:32;14.40;66.60
63017;DHT22;50274;45.640;11.756;2023-04-29T03:31:58;14.30;66.60
63017;DHT22;50274;45.640;11.756;2023-04-29T03:34:24;14.30;66.60
63017;DHT22;50274;45.640;11.756;2023-04-29T03:36:50;14.30;66.50
63017;DHT22;50274;45.640;11.756;2023-04-29T03:39:16;14.30;66.40
63017;DHT22;50274;45.640;11.756;2023-04-29T03:41:42;14.30;66.40
63017;DHT22;50274;45.640;11.756;2023-04-29T03:44:08;14.30;66.30
63017;DHT22;50274;45.640;11.756;2023-04-29T03:46:34;14.30;66.20
63017;DHT22;50274;45.640;11.756;2023-04-29T03:49:00;14.30;66.20
63017;DHT22;50274;45.640;11.756;2023-04-29T03:51:26;14.30;66.40
63017;DHT22;50274;45.640;11.756;2023-04-29T03:53:53;14.30;66.40
63017;DHT22;50274;45.640;11.756;2023-04-29T03:56:20;14.30;66.60
63017;DHT22;50274;45.640;11.756;2023-04-29T03:58:47;14.20;66.80
63017;DHT22;50274;45.640;11.756;2023-04-29T04:01:13;14.20;66.90
63017;DHT22;50274;45.640;11.756;2023-04-29T04:03:40;14.20;67.00
63017;DHT22;50274;45.640;11.756;2023-04-29T04:06:08;14.20;67.10
63017;DHT22;50274;45.640;11.756;2023-04-29T04:08:33;14.20;67.10
63017;DHT22;50274;45.640;11.756;2023-04-29T04:10:59;14.20;67.20
63017;DHT22;50274;45.640;11.756;2023-04-29T04:13:30;14.20;67.30
63017;DHT22;50274;45.640;11.756;2023-04-29T04:15:56;14.20;67.40
63017;DHT22;50274;45.640;11.756;2023-04-29T04:18:22;14.20;67.40
63017;DHT22;50274;45.640;11.756;2023-04-29T04:20:48;14.20;67.50
63017;DHT22;50274;45.640;11.756;2023-04-29T04:23:14;14.20;67.60
63017;DHT22;50274;45.640;11.756;2023-04-29T04:25:47;14.20;67.70
63017;DHT22;50274;45.640;11.756;2023-04-29T04:28:13;14.20;67.90
63017;DHT22;50274;45.640;11.756;2023-04-29T04:30:39;14.20;68.00
63017;DHT22;50274;45.640;11.756;2023-04-29T04:33:05;14.20;67.90
63017;DHT22;50274;45.640;11.756;2023-04-29T04:35:31;14.20;68.00
63017;DHT22;50274;45.640;11.756;2023-04-29T04:37:57;14.30;68.00
63017;DHT22;50274;45.640;11.756;2023-04-29T04:40:23;14.20;68.10
63017;DHT22;50274;45.640;11.756;2023-04-29T04:42:49;14.30;68.20
63017;DHT22;50274;45.640;11.756;2023-04-29T04:45:15;14.20;68.30
63017;DHT22;50274;45.640;11.756;2023-04-29T04:47:42;14.20;68.30
63017;DHT22;50274;45.640;11.756;2023-04-29T04:50:08;14.20;68.40
63017;DHT22;50274;45.640;11.756;2023-04-29T04:52:34;14.20;68.50
63017;DHT22;50274;45.640;11.756;2023-04-29T04:55:00;14.20;68.50
63017;DHT22;50274;45.640;11.756;2023-04-29T04:57:25;14.20;68.70
63017;DHT22;50274;45.640;11.756;2023-04-29T04:59:51;14.20;68.60
63017;DHT22;50274;45.640;11.756;2023-04-29T05:02:17;14.20;68.60
63017;DHT22;50274;45.640;11.756;2023-04-29T05:04:43;14.20;68.70
63017;DHT22;50274;45.640;11.756;2023-04-29T05:07:09;14.30;68.60
63017;DHT22;50274;45.640;11.756;2023-04-29T05:09:35;14.30;68.70
63017;DHT22;50274;45.640;11.756;2023-04-29T05:12:02;14.20;68.80
63017;DHT22;50274;45.640;11.756;2023-04-29T05:14:28;14.20;68.90
63017;DHT22;50274;45.640;11.756;2023-04-29T05:17:00;14.20;68.90
63017;DHT22;50274;45.640;11.756;2023-04-29T05:19:26;14.20;68.90
63017;DHT22;50274;45.640;11.756;2023-04-29T05:21:54;14.20;68.90
63017;DHT22;50274;45.640;11.756;2023-04-29T05:24:20;14.30;68.80
63017;DHT22;50274;45.640;11.756;2023-04-29T05:26:46;14.30;68.90
63017;DHT22;50274;45.640;11.756;2023-04-29T05:29:14;14.30;68.90
63017;DHT22;50274;45.640;11.756;2023-04-29T05:31:40;14.30;68.90
63017;DHT22;50274;45.640;11.756;2023-04-29T05:34:06;14.30;68.90
63017;DHT22;50274;45.640;11.756;2023-04-29T05:36:32;14.40;68.90
63017;DHT22;50274;45.640;11.756;2023-04-29T05:38:57;14.40;68.90
63017;DHT22;50274;45.640;11.756;2023-04-29T05:41:23;14.40;68.90
63017;DHT22;50274;45.640;11.756;2023-04-29T05:43:50;14.50;68.70
63017;DHT22;50274;45.640;11.756;2023-04-29T05:46:16;14.50;68.50
63017;DHT22;50274;45.640;11.756;2023-04-29T05:48:42;14.50;68.50
63017;DHT22;50274;45.640;11.756;2023-04-29T05:51:08;14.60;68.40
63017;DHT22;50274;45.640;11.756;2023-04-29T05:53:33;14.60;68.30
63017;DHT22;50274;45.640;11.756;2023-04-29T05:56:01;14.60;68.40
63017;DHT22;50274;45.640;11.756;2023-04-29T05:58:30;14.70;68.60
63017;DHT22;50274;45.640;11.756;2023-04-29T06:00:56;14.70;68.80
63017;DHT22;50274;45.640;11.756;2023-04-29T06:03:22;14.70;68.90
63017;DHT22;50274;45.640;11.756;2023-04-29T06:05:48;14.70;69.00
63017;DHT22;50274;45.640;11.756;2023-04-29T06:08:14;14.70;69.10
63017;DHT22;50274;45.640;11.756;2023-04-29T06:10:43;14.70;69.20
63017;DHT22;50274;45.640;11.756;2023-04-29T06:13:10;14.70;69.20
63017;DHT22;50274;45.640;11.756;2023-04-29T06:15:37;14.70;69.20
63017;DHT22;50274;45.640;11.756;2023-04-29T06:18:03;14.70;69.10
63017;DHT22;50274;45.640;11.756;2023-04-29T06:20:29;14.80;69.10
63017;DHT22;50274;45.640;11.756;2023-04-29T06:22:55;14.80;69.10
63017;DHT22;50274;45.640;11.756;2023-04-29T06:25:20;14.80;69.00
63017;DHT22;50274;45.640;11.756;2023-04-29T06:27:50;14.80;68.90
63017;DHT22;50274;45.640;11.756;2023-04-29T06:30:25;14.80;68.80
63017;DHT22;50274;45.640;11.756;2023-04-29T06:33:02;14.80;68.80
63017;DHT22;50274;45.640;11.756;2023-04-29T06:35:30;14.80;68.70
63017;DHT22;50274;45.640;11.756;2023-04-29T06:37:56;14.90;68.80
63017;DHT22;50274;45.640;11.756;2023-04-29T06:40:22;14.90;68.70
63017;DHT22;50274;45.640;11.756;2023-04-29T06:42:52;14.90;68.70
63017;DHT22;50274;45.640;11.756;2023-04-29T06:45:21;15.00;68.70
63017;DHT22;50274;45.640;11.756;2023-04-29T06:47:48;15.00;68.70
63017;DHT22;50274;45.640;11.756;2023-04-29T06:50:15;15.00;69.00
63017;DHT22;50274;45.640;11.756;2023-04-29T06:52:41;15.00;68.90
63017;DHT22;50274;45.640;11.756;2023-04-29T06:55:07;15.00;68.70
63017;DHT22;50274;45.640;11.756;2023-04-29T06:57:33;15.10;68.50
63017;DHT22;50274;45.640;11.756;2023-04-29T06:59:59;15.20;68.20
63017;DHT22;50274;45.640;11.756;2023-04-29T07:02:25;15.30;67.90
63017;DHT22;50274;45.640;11.756;2023-04-29T07:04:51;15.30;67.60
63017;DHT22;50274;45.640;11.756;2023-04-29T07:07:17;15.40;67.30
63017;DHT22;50274;45.640;11.756;2023-04-29T07:09:43;15.50;66.80
63017;DHT22;50274;45.640;11.756;2023-04-29T07:12:08;15.60;66.50
63017;DHT22;50274;45.640;11.756;2023-04-29T07:14:34;15.60;66.30
63017;DHT22;50274;45.640;11.756;2023-04-29T07:17:02;15.70;66.40
63017;DHT22;50274;45.640;11.756;2023-04-29T07:19:27;15.80;66.30
63017;DHT22;50274;45.640;11.756;2023-04-29T07:21:53;15.90;66.20
63017;DHT22;50274;45.640;11.756;2023-04-29T07:24:19;16.00;65.90
63017;DHT22;50274;45.640;11.756;2023-04-29T07:26:45;16.10;65.50
63017;DHT22;50274;45.640;11.756;2023-04-29T07:29:11;16.30;64.60
63017;DHT22;50274;45.640;11.756;2023-04-29T07:31:37;16.30;63.90
63017;DHT22;50274;45.640;11.756;2023-04-29T07:34:03;16.40;63.40
63017;DHT22;50274;45.640;11.756;2023-04-29T07:36:29;16.50;63.20
63017;DHT22;50274;45.640;11.756;2023-04-29T07:38:56;16.50;62.90
63017;DHT22;50274;45.640;11.756;2023-04-29T07:41:21;16.60;62.10
63017;DHT22;50274;45.640;11.756;2023-04-29T07:43:47;16.60;61.80
63017;DHT22;50274;45.640;11.756;2023-04-29T07:46:13;16.60;62.00
63017;DHT22;50274;45.640;11.756;2023-04-29T07:48:39;16.70;61.90
63017;DHT22;50274;45.640;11.756;2023-04-29T07:51:12;16.80;61.50
63017;DHT22;50274;45.640;11.756;2023-04-29T07:53:38;16.80;61.10
63017;DHT22;50274;45.640;11.756;2023-04-29T07:56:08;16.90;60.40
63017;DHT22;50274;45.640;11.756;2023-04-29T07:58:34;17.00;60.40
63017;DHT22;50274;45.640;11.756;2023-04-29T08:01:09;17.10;60.20
63017;DHT22;50274;45.640;11.756;2023-04-29T08:03:36;17.10;60.00
63017;DHT22;50274;45.640;11.756;2023-04-29T08:06:05;17.20;59.30
63017;DHT22;50274;45.640;11.756;2023-04-29T08:08:32;17.20;58.60
63017;DHT22;50274;45.640;11.756;2023-04-29T08:10:58;17.30;58.70
63017;DHT22;50274;45.640;11.756;2023-04-29T08:13:24;17.30;58.30
63017;DHT22;50274;45.640;11.756;2023-04-29T08:15:50;17.40;58.10
63017;DHT22;50274;45.640;11.756;2023-04-29T08:18:17;17.50;58.00
63017;DHT22;50274;45.640;11.756;2023-04-29T08:20:42;17.50;58.00
63017;DHT22;50274;45.640;11.756;2023-04-29T08:23:08;17.50;57.70
63017;DHT22;50274;45.640;11.756;2023-04-29T08:25:34;17.50;57.80
63017;DHT22;50274;45.640;11.756;2023-04-29T08:28:00;17.50;57.80
63017;DHT22;50274;45.640;11.756;2023-04-29T08:30:26;17.50;58.60
63017;DHT22;50274;45.640;11.756;2023-04-29T08:32:51;17.50;58.00
63017;DHT22;50274;45.640;11.756;2023-04-29T08:35:17;17.50;57.90
63017;DHT22;50274;45.640;11.756;2023-04-29T08:37:43;17.60;57.70
63017;DHT22;50274;45.640;11.756;2023-04-29T08:40:09;17.70;57.70
63017;DHT22;50274;45.640;11.756;2023-04-29T08:42:36;17.80;57.30
63017;DHT22;50274;45.640;11.756;2023-04-29T08:45:03;17.80;57.30
63017;DHT22;50274;45.640;11.756;2023-04-29T08:47:29;17.90;56.60
63017;DHT22;50274;45.640;11.756;2023-04-29T08:50:02;18.00;56.10
63017;DHT22;50274;45.640;11.756;2023-04-29T08:52:32;18.10;56.20
63017;DHT22;50274;45.640;11.756;2023-04-29T08:54:59;18.20;55.80
63017;DHT22;50274;45.640;11.756;2023-04-29T08:57:28;18.30;55.40
63017;DHT22;50274;45.640;11.756;2023-04-29T08:59:55;18.40;55.40
63017;DHT22;50274;45.640;11.756;2023-04-29T09:02:22;18.50;55.40
63017;DHT22;50274;45.640;11.756;2023-04-29T09:05:08;18.50;55.30
63017;DHT22;50274;45.640;11.756;2023-04-29T09:07:37;18.60;54.70
63017;DHT22;50274;45.640;11.756;2023-04-29T09:10:04;18.50;54.70
63017;DHT22;50274;45.640;11.756;2023-04-29T09:12:30;18.50;54.10
63017;DHT22;50274;45.640;11.756;2023-04-29T09:14:56;18.60;54.40
63017;DHT22;50274;45.640;11.756;2023-04-29T09:17:44;18.60;54.60
63017;DHT22;50274;45.640;11.756;2023-04-29T09:20:30;18.60;54.70
63017;DHT22;50274;45.640;11.756;2023-04-29T09:23:01;18.70;54.60
63017;DHT22;50274;45.640;11.756;2023-04-29T09:25:30;18.80;54.60
63017;DHT22;50274;45.640;11.756;2023-04-29T09:27:56;18.80;53.80
63017;DHT22;50274;45.640;11.756;2023-04-29T09:30:22;18.80;53.30
63017;DHT22;50274;45.640;11.756;2023-04-29T09:33:06;18.90;51.90
63017;DHT22;50274;45.640;11.756;2023-04-29T09:35:32;18.90;51.50
63017;DHT22;50274;45.640;11.756;2023-04-29T09:40:34;19.00;51.20
63017;DHT22;50274;45.640;11.756;2023-04-29T09:43:00;19.00;50.30
63017;DHT22;50274;45.640;11.756;2023-04-29T09:45:33;19.10;50.40
63017;DHT22;50274;45.640;11.756;2023-04-29T09:48:04;19.20;50.80
63017;DHT22;50274;45.640;11.756;2023-04-29T09:50:34;19.30;49.50
63017;DHT22;50274;45.640;11.756;2023-04-29T09:53:04;19.30;49.60
63017;DHT22;50274;45.640;11.756;2023-04-29T09:55:34;19.20;48.90
63017;DHT22;50274;45.640;11.756;2023-04-29T09:58:00;19.20;49.10
63017;DHT22;50274;45.640;11.756;2023-04-29T10:00:30;19.20;49.50
63017;DHT22;50274;45.640;11.756;2023-04-29T10:02:59;19.20;49.40
63017;DHT22;50274;45.640;11.756;2023-04-29T10:05:27;19.20;49.20
63017;DHT22;50274;45.640;11.756;2023-04-29T10:07:57;19.20;49.60
63017;DHT22;50274;45.640;11.756;2023-04-29T10:10:24;19.20;48.60
63017;DHT22;50274;45.640;11.756;2023-04-29T10:12:55;19.20;48.80
63017;DHT22;50274;45.640;11.756;2023-04-29T10:15:34;19.20;49.30
63017;DHT22;50274;45.640;11.756;2023-04-29T10:18:39;19.20;49.30
63017;DHT22;50274;45.640;11.756;2023-04-29T10:20:56;19.30;48.60
63017;DHT22;50274;45.640;11.756;2023-04-29T10:23:25;19.60;48.80
63017;DHT22;50274;45.640;11.756;2023-04-29T10:25:52;19.90;48.70
63017;DHT22;50274;45.640;11.756;2023-04-29T10:28:19;20.10;48.40
63017;DHT22;50274;45.640;11.756;2023-04-29T10:30:50;20.20;46.80
63017;DHT22;50274;45.640;11.756;2023-04-29T10:33:17;20.30;47.00
63017;DHT22;50274;45.640;11.756;2023-04-29T10:35:43;20.30;47.50
63017;DHT22;50274;45.640;11.756;2023-04-29T10:38:36;20.40;47.80
63017;DHT22;50274;45.640;11.756;2023-04-29T10:41:09;20.60;47.90
63017;DHT22;50274;45.640;11.756;2023-04-29T10:43:40;20.60;47.90
63017;DHT22;50274;45.640;11.756;2023-04-29T10:48:44;20.70;47.50
63017;DHT22;50274;45.640;11.756;2023-04-29T10:51:10;20.70;46.80
63017;DHT22;50274;45.640;11.756;2023-04-29T10:53:59;20.70;46.50
63017;DHT22;50274;45.640;11.756;2023-04-29T10:56:42;20.90;46.70
63017;DHT22;50274;45.640;11.756;2023-04-29T10:59:13;21.20;46.20
63017;DHT22;50274;45.640;11.756;2023-04-29T11:01:42;21.50;45.90
63017;DHT22;50274;45.640;11.756;2023-04-29T11:04:09;21.80;45.60
63017;DHT22;50274;45.640;11.756;2023-04-29T11:09:02;22.40;44.60
63017;DHT22;50274;45.640;11.756;2023-04-29T11:11:45;22.60;44.70
63017;DHT22;50274;45.640;11.756;2023-04-29T11:14:13;22.80;43.80
63017;DHT22;50274;45.640;11.756;2023-04-29T11:17:00;22.80;42.90
63017;DHT22;50274;45.640;11.756;2023-04-29T11:19:31;22.80;43.30
63017;DHT22;50274;45.640;11.756;2023-04-29T11:22:24;22.90;43.20
63017;DHT22;50274;45.640;11.756;2023-04-29T11:27:18;22.90;43.50
63017;DHT22;50274;45.640;11.756;2023-04-29T11:29:45;23.10;43.60
63017;DHT22;50274;45.640;11.756;2023-04-29T11:32:12;23.10;43.70
63017;DHT22;50274;45.640;11.756;2023-04-29T11:34:38;23.20;43.30
63017;DHT22;50274;45.640;11.756;2023-04-29T11:37:04;23.40;43.30
63017;DHT22;50274;45.640;11.756;2023-04-29T11:39:33;23.50;42.70
63017;DHT22;50274;45.640;11.756;2023-04-29T11:42:06;23.60;42.90
63017;DHT22;50274;45.640;11.756;2023-04-29T11:44:33;23.60;42.10
63017;DHT22;50274;45.640;11.756;2023-04-29T11:47:09;23.60;42.00
63017;DHT22;50274;45.640;11.756;2023-04-29T11:49:35;23.70;42.00
63017;DHT22;50274;45.640;11.756;2023-04-29T11:52:07;23.80;42.30
63017;DHT22;50274;45.640;11.756;2023-04-29T11:54:33;23.90;42.30
63017;DHT22;50274;45.640;11.756;2023-04-29T11:56:58;23.90;42.50
63017;DHT22;50274;45.640;11.756;2023-04-29T11:59:30;23.90;42.00
63017;DHT22;50274;45.640;11.756;2023-04-29T12:01:57;23.90;41.80
63017;DHT22;50274;45.640;11.756;2023-04-29T12:04:26;24.00;42.00
63017;DHT22;50274;45.640;11.756;2023-04-29T12:06:52;24.10;42.10
63017;DHT22;50274;45.640;11.756;2023-04-29T12:09:18;24.20;42.40
63017;DHT22;50274;45.640;11.756;2023-04-29T12:11:45;24.40;42.20
63017;DHT22;50274;45.640;11.756;2023-04-29T12:14:14;24.60;41.90
63017;DHT22;50274;45.640;11.756;2023-04-29T12:16:40;24.70;42.10
63017;DHT22;50274;45.640;11.756;2023-04-29T12:19:07;24.70;41.90
63017;DHT22;50274;45.640;11.756;2023-04-29T12:21:35;24.60;40.90
63017;DHT22;50274;45.640;11.756;2023-04-29T12:24:01;24.50;40.80
63017;DHT22;50274;45.640;11.756;2023-04-29T12:26:29;24.50;41.20
63017;DHT22;50274;45.640;11.756;2023-04-29T12:28:58;24.60;41.40
63017;DHT22;50274;45.640;11.756;2023-04-29T12:31:32;24.60;41.50
63017;DHT22;50274;45.640;11.756;2023-04-29T12:33:59;24.70;41.20
63017;DHT22;50274;45.640;11.756;2023-04-29T12:36:24;24.80;41.30
63017;DHT22;50274;45.640;11.756;2023-04-29T12:38:51;24.70;41.70
63017;DHT22;50274;45.640;11.756;2023-04-29T12:41:19;24.60;41.40
63017;DHT22;50274;45.640;11.756;2023-04-29T12:43:45;24.40;41.30
63017;DHT22;50274;45.640;11.756;2023-04-29T12:46:14;24.20;41.30
63017;DHT22;50274;45.640;11.756;2023-04-29T12:48:41;24.00;41.90
63017;DHT22;50274;45.640;11.756;2023-04-29T12:51:11;23.70;42.30
63017;DHT22;50274;45.640;11.756;2023-04-29T12:53:38;23.60;42.80
63017;DHT22;50274;45.640;11.756;2023-04-29T12:56:05;23.50;43.30
63017;DHT22;50274;45.640;11.756;2023-04-29T12:58:32;23.30;43.60
63017;DHT22;50274;45.640;11.756;2023-04-29T13:00:59;23.20;43.90
63017;DHT22;50274;45.640;11.756;2023-04-29T13:03:25;23.10;43.40
63017;DHT22;50274;45.640;11.756;2023-04-29T13:05:51;23.10;43.90
63017;DHT22;50274;45.640;11.756;2023-04-29T13:08:19;22.90;44.10
63017;DHT22;50274;45.640;11.756;2023-04-29T13:10:45;23.00;44.40
63017;DHT22;50274;45.640;11.756;2023-04-29T13:13:11;23.10;44.80
63017;DHT22;50274;45.640;11.756;2023-04-29T13:15:37;23.30;44.50
63017;DHT22;50274;45.640;11.756;2023-04-29T13:18:04;23.50;44.60
63017;DHT22;50274;45.640;11.756;2023-04-29T13:20:30;23.80;44.90
63017;DHT22;50274;45.640;11.756;2023-04-29T13:22:57;24.00;44.60
63017;DHT22;50274;45.640;11.756;2023-04-29T13:25:23;24.10;43.80
63017;DHT22;50274;45.640;11.756;2023-04-29T13:27:49;24.20;43.40
63017;DHT22;50274;45.640;11.756;2023-04-29T13:30:15;24.20;42.70
63017;DHT22;50274;45.640;11.756;2023-04-29T13:32:41;24.20;41.80
63017;DHT22;50274;45.640;11.756;2023-04-29T13:35:07;24.20;42.10
63017;DHT22;50274;45.640;11.756;2023-04-29T13:37:33;24.40;42.20
63017;DHT22;50274;45.640;11.756;2023-04-29T13:39:59;24.40;42.40
63017;DHT22;50274;45.640;11.756;2023-04-29T13:42:25;24.40;41.50
63017;DHT22;50274;45.640;11.756;2023-04-29T13:44:52;24.30;42.10
63017;DHT22;50274;45.640;11.756;2023-04-29T13:47:21;24.30;41.90
63017;DHT22;50274;45.640;11.756;2023-04-29T13:49:48;24.20;41.40
63017;DHT22;50274;45.640;11.756;2023-04-29T13:52:14;24.10;41.00
63017;DHT22;50274;45.640;11.756;2023-04-29T13:54:42;24.00;41.20
63017;DHT22;50274;45.640;11.756;2023-04-29T13:57:08;24.00;41.60
63017;DHT22;50274;45.640;11.756;2023-04-29T13:59:34;24.00;41.60
63017;DHT22;50274;45.640;11.756;2023-04-29T14:02:01;24.00;41.90
63017;DHT22;50274;45.640;11.756;2023-04-29T14:04:28;23.90;42.10
63017;DHT22;50274;45.640;11.756;2023-04-29T14:06:54;23.90;42.70
63017;DHT22;50274;45.640;11.756;2023-04-29T14:09:21;23.80;42.90
63017;DHT22;50274;45.640;11.756;2023-04-29T14:11:48;23.60;42.70
63017;DHT22;50274;45.640;11.756;2023-04-29T14:14:15;23.50;42.00
63017;DHT22;50274;45.640;11.756;2023-04-29T14:16:42;23.40;42.50
63017;DHT22;50274;45.640;11.756;2023-04-29T14:19:08;23.40;43.20
63017;DHT22;50274;45.640;11.756;2023-04-29T14:21:34;23.40;43.50
63017;DHT22;50274;45.640;11.756;2023-04-29T14:24:00;23.30;43.10
63017;DHT22;50274;45.640;11.756;2023-04-29T14:26:30;23.20;43.80
63017;DHT22;50274;45.640;11.756;2023-04-29T14:28:57;23.10;43.80
63017;DHT22;50274;45.640;11.756;2023-04-29T14:31:30;23.10;44.10
63017;DHT22;50274;45.640;11.756;2023-04-29T14:33:56;23.00;44.10
63017;DHT22;50274;45.640;11.756;2023-04-29T14:36:32;23.00;43.90
63017;DHT22;50274;45.640;11.756;2023-04-29T14:39:02;23.00;44.30
63017;DHT22;50274;45.640;11.756;2023-04-29T14:41:28;23.00;44.50
63017;DHT22;50274;45.640;11.756;2023-04-29T14:43:54;22.90;44.40
63017;DHT22;50274;45.640;11.756;2023-04-29T14:46:20;22.80;44.10
63017;DHT22;50274;45.640;11.756;2023-04-29T14:48:49;22.80;44.00
63017;DHT22;50274;45.640;11.756;2023-04-29T14:51:17;22.70;44.10
63017;DHT22;50274;45.640;11.756;2023-04-29T14:53:43;22.60;44.60
63017;DHT22;50274;45.640;11.756;2023-04-29T14:56:09;22.50;45.10
63017;DHT22;50274;45.640;11.756;2023-04-29T14:58:35;22.40;45.40
63017;DHT22;50274;45.640;11.756;2023-04-29T15:01:01;22.30;45.30
63017;DHT22;50274;45.640;11.756;2023-04-29T15:03:27;22.30;45.50
63017;DHT22;50274;45.640;11.756;2023-04-29T15:05:52;22.20;45.90
63017;DHT22;50274;45.640;11.756;2023-04-29T15:08:19;22.20;46.10
63017;DHT22;50274;45.640;11.756;2023-04-29T15:10:45;22.10;45.90
63017;DHT22;50274;45.640;11.756;2023-04-29T15:13:12;22.10;46.10
63017;DHT22;50274;45.640;11.756;2023-04-29T15:15:38;22.10;46.30
63017;DHT22;50274;45.640;11.756;2023-04-29T15:18:04;22.00;46.50
63017;DHT22;50274;45.640;11.756;2023-04-29T15:20:32;22.00;46.90
63017;DHT22;50274;45.640;11.756;2023-04-29T15:22:58;22.00;47.00
63017;DHT22;50274;45.640;11.756;2023-04-29T15:25:23;21.90;46.90
63017;DHT22;50274;45.640;11.756;2023-04-29T15:27:49;21.90;47.10
63017;DHT22;50274;45.640;11.756;2023-04-29T15:30:15;21.70;47.20
63017;DHT22;50274;45.640;11.756;2023-04-29T15:32:41;21.70;47.70
63017;DHT22;50274;45.640;11.756;2023-04-29T15:35:08;21.60;47.80
63017;DHT22;50274;45.640;11.756;2023-04-29T15:37:34;21.60;48.20
63017;DHT22;50274;45.640;11.756;2023-04-29T15:40:00;21.60;48.70
63017;DHT22;50274;45.640;11.756;2023-04-29T15:42:27;21.60;48.80